createdAt,value
2017-06-13T00:01:19.465Z,6.03
2017-06-13T00:03:46.997Z,6.80
2017-06-13T00:06:14.557Z,6.87
2017-06-13T00:08:42.126Z,6.73
2017-06-13T00:11:09.657Z,7.77
2017-06-13T00:13:37.188Z,9.27
2017-06-13T00:16:04.758Z,9.17
2017-06-13T00:18:32.618Z,8.83
2017-06-13T00:21:00.158Z,7.30
2017-06-13T00:23:27.747Z,8.03
2017-06-13T00:25:55.286Z,8.30
2017-06-13T00:28:22.809Z,8.00
2017-06-13T00:30:50.374Z,7.90
2017-06-13T00:33:17.909Z,7.50
2017-06-13T00:35:45.734Z,8.33
2017-06-13T00:38:13.297Z,8.50
2017-06-13T00:40:40.822Z,8.40
2017-06-13T00:43:08.366Z,7.47
2017-06-13T00:45:35.957Z,7.87
2017-06-13T00:48:03.481Z,7.20
2017-06-13T00:50:31.027Z,6.20
2017-06-13T00:52:58.589Z,6.83
2017-06-13T00:55:26.126Z,7.40
2017-06-13T00:57:53.658Z,7.50
2017-06-13T01:00:21.333Z,7.10
2017-06-13T01:02:48.873Z,7.50
2017-06-13T01:05:16.400Z,7.50
2017-06-13T01:07:43.966Z,6.60
2017-06-13T01:10:11.510Z,6.70
2017-06-13T01:12:39.043Z,7.03
2017-06-13T01:15:06.609Z,6.30
2017-06-13T01:17:34.155Z,5.97
2017-06-13T01:20:01.714Z,7.47
2017-06-13T01:22:29.292Z,6.70
2017-06-13T01:24:56.829Z,6.40
2017-06-13T01:27:24.357Z,6.60
2017-06-13T01:29:51.936Z,6.43
2017-06-13T01:32:19.515Z,6.70
2017-06-13T01:34:47.073Z,5.93
2017-06-13T01:37:14.623Z,6.73
2017-06-13T01:39:42.234Z,6.37
2017-06-13T01:42:09.806Z,6.13
2017-06-13T01:44:37.358Z,8.10
2017-06-13T01:47:04.949Z,6.17
2017-06-13T01:49:32.489Z,6.70
2017-06-13T01:52:00.034Z,6.37
2017-06-13T01:54:27.619Z,7.23
2017-06-13T01:56:55.151Z,6.07
2017-06-13T01:59:22.688Z,6.60
2017-06-13T02:01:50.266Z,6.30
2017-06-13T02:04:17.829Z,6.97
2017-06-13T02:06:45.360Z,6.87
2017-06-13T02:09:12.925Z,7.20
2017-06-13T02:11:40.446Z,7.40
2017-06-13T02:14:07.980Z,7.70
2017-06-13T02:16:35.541Z,7.83
2017-06-13T02:19:03.076Z,7.97
2017-06-13T02:21:30.609Z,8.17
2017-06-13T02:23:58.177Z,8.57
2017-06-13T02:26:25.938Z,6.60
2017-06-13T02:28:53.469Z,8.17
2017-06-13T02:31:21.075Z,7.93
2017-06-13T02:33:48.617Z,8.83
2017-06-13T02:36:16.145Z,7.87
2017-06-13T02:38:43.713Z,7.33
2017-06-13T02:41:11.242Z,8.23
2017-06-13T02:43:38.786Z,7.00
2017-06-13T02:46:06.362Z,7.40
2017-06-13T02:48:33.901Z,7.57
2017-06-13T02:51:01.450Z,7.77
2017-06-13T02:53:29.049Z,7.23
2017-06-13T02:55:56.582Z,7.07
2017-06-13T02:58:24.113Z,7.83
2017-06-13T03:00:51.694Z,7.40
2017-06-13T03:03:19.220Z,7.53
2017-06-13T03:05:47.077Z,7.37
2017-06-13T03:08:14.643Z,7.83
2017-06-13T03:10:42.169Z,7.43
2017-06-13T03:13:09.703Z,7.87
2017-06-13T03:15:37.270Z,7.07
2017-06-13T03:18:04.807Z,7.63
2017-06-13T03:20:32.338Z,7.13
2017-06-13T03:22:59.906Z,7.03
2017-06-13T03:25:27.463Z,6.93
2017-06-13T03:27:55.031Z,7.47
2017-06-13T03:30:22.733Z,6.50
2017-06-13T03:32:50.263Z,6.63
2017-06-13T03:35:17.793Z,6.97
2017-06-13T03:37:45.670Z,6.10
2017-06-13T03:40:13.203Z,6.90
2017-06-13T03:42:40.741Z,7.20
2017-06-13T03:45:08.308Z,7.70
2017-06-13T03:47:35.839Z,7.67
2017-06-13T03:50:03.382Z,8.23
2017-06-13T03:52:30.941Z,7.90
2017-06-13T03:54:58.481Z,9.33
2017-06-13T03:57:26.023Z,9.27
2017-06-13T03:59:53.595Z,8.93
2017-06-13T04:02:21.205Z,8.50
2017-06-13T04:04:48.750Z,9.67
2017-06-13T04:07:16.290Z,9.00
2017-06-13T04:09:43.872Z,9.90
2017-06-13T04:12:11.474Z,9.37
2017-06-13T04:14:39.009Z,10.00
2017-06-13T04:17:06.584Z,10.60
2017-06-13T04:19:34.129Z,10.00
2017-06-13T04:22:01.665Z,10.17
2017-06-13T04:24:29.266Z,12.00
2017-06-13T04:26:56.869Z,10.83
2017-06-13T04:29:24.421Z,9.70
2017-06-13T04:31:52.010Z,11.43
2017-06-13T04:34:19.541Z,10.27
2017-06-13T04:36:47.083Z,10.43
2017-06-13T04:39:14.688Z,11.37
2017-06-13T04:41:42.238Z,10.63
2017-06-13T04:44:09.781Z,10.17
2017-06-13T04:46:37.369Z,10.83
2017-06-13T04:49:04.912Z,11.03
2017-06-13T04:51:32.457Z,11.40
2017-06-13T04:54:00.035Z,10.23
2017-06-13T04:56:27.577Z,10.50
2017-06-13T04:58:55.117Z,13.33
2017-06-13T05:01:22.982Z,14.77
2017-06-13T05:03:50.518Z,11.77
2017-06-13T05:06:18.081Z,10.93
2017-06-13T05:08:45.674Z,11.40
2017-06-13T05:11:13.209Z,11.70
2017-06-13T05:13:40.755Z,10.47
2017-06-13T05:16:08.337Z,10.83
2017-06-13T05:18:35.886Z,10.50
2017-06-13T05:21:03.430Z,10.30
2017-06-13T05:23:31.031Z,11.53
2017-06-13T05:25:58.565Z,11.10
2017-06-13T05:28:26.098Z,11.40
2017-06-13T05:30:53.678Z,11.57
2017-06-13T05:33:21.226Z,11.87
2017-06-13T05:35:48.765Z,12.60
2017-06-13T05:38:16.338Z,13.10
2017-06-13T05:40:43.886Z,12.10
2017-06-13T05:43:11.428Z,10.40
2017-06-13T05:45:38.610Z,11.17
2017-06-13T05:48:06.146Z,12.07
2017-06-13T05:50:33.747Z,10.70
2017-06-13T05:53:01.337Z,10.27
2017-06-13T05:55:28.886Z,10.50
2017-06-13T05:57:56.752Z,10.63
2017-06-13T06:00:24.430Z,10.30
2017-06-13T06:02:52.301Z,10.60
2017-06-13T06:05:19.837Z,12.83
2017-06-13T06:07:47.437Z,11.33
2017-06-13T06:10:14.974Z,10.43
2017-06-13T06:12:42.530Z,11.30
2017-06-13T06:15:10.155Z,10.73
2017-06-13T06:17:37.694Z,10.70
2017-06-13T06:20:05.246Z,12.10
2017-06-13T06:22:32.845Z,11.30
2017-06-13T06:25:00.385Z,10.70
2017-06-13T06:27:27.936Z,11.83
2017-06-13T06:29:55.534Z,10.87
2017-06-13T06:32:23.141Z,10.17
2017-06-13T06:34:50.683Z,10.00
2017-06-13T06:37:18.218Z,9.10
2017-06-13T06:39:45.786Z,9.47
2017-06-13T06:42:13.341Z,9.83
2017-06-13T06:44:40.879Z,9.87
2017-06-13T06:47:08.454Z,8.77
2017-06-13T06:49:36.405Z,10.63
2017-06-13T06:52:03.943Z,11.23
2017-06-13T06:54:31.533Z,11.00
2017-06-13T06:56:59.079Z,11.73
2017-06-13T06:59:26.849Z,10.60
2017-06-13T07:01:54.425Z,11.40
2017-06-13T07:04:21.960Z,9.83
2017-06-13T07:06:49.505Z,10.90
2017-06-13T07:09:17.095Z,10.97
2017-06-13T07:11:44.629Z,11.00
2017-06-13T07:14:12.166Z,10.97
2017-06-13T07:16:39.753Z,9.57
2017-06-13T07:19:07.297Z,12.50
2017-06-13T07:21:34.850Z,10.00
2017-06-13T07:24:02.457Z,10.47
2017-06-13T07:26:30.009Z,11.03
2017-06-13T07:28:57.549Z,10.90
2017-06-13T07:31:25.130Z,12.37
2017-06-13T07:33:52.675Z,12.90
2017-06-13T07:36:20.442Z,12.17
2017-06-13T07:38:48.014Z,12.83
2017-06-13T07:41:15.781Z,11.60
2017-06-13T07:43:43.349Z,11.30
2017-06-13T07:46:11.202Z,12.13
2017-06-13T07:48:39.009Z,10.83
2017-06-13T07:51:06.557Z,11.40
2017-06-13T07:53:34.434Z,13.50
2017-06-13T07:56:02.363Z,12.33
2017-06-13T07:58:29.902Z,10.60
2017-06-13T08:00:57.859Z,11.60
2017-06-13T08:03:25.697Z,12.03
2017-06-13T08:05:53.279Z,10.50
2017-06-13T08:08:20.854Z,11.40
2017-06-13T08:10:48.401Z,11.10
2017-06-13T08:13:15.946Z,11.17
2017-06-13T08:15:43.526Z,11.10
2017-06-13T08:18:11.298Z,10.10
2017-06-13T08:20:39.126Z,9.70
2017-06-13T08:23:06.711Z,9.97
2017-06-13T08:25:34.478Z,10.23
2017-06-13T08:28:02.032Z,11.37
2017-06-13T08:30:29.638Z,10.20
2017-06-13T08:32:57.413Z,10.30
2017-06-13T08:35:25.172Z,9.73
2017-06-13T08:37:52.741Z,8.97
2017-06-13T08:40:20.293Z,8.80
2017-06-13T08:42:47.825Z,7.93
2017-06-13T08:45:15.395Z,6.60
2017-06-13T08:47:42.929Z,6.97
2017-06-13T08:50:10.472Z,6.83
2017-06-13T08:52:38.043Z,7.60
2017-06-13T08:55:05.598Z,7.50
2017-06-13T08:57:33.144Z,5.70
2017-06-13T09:00:00.717Z,6.10
2017-06-13T09:02:28.286Z,5.30
2017-06-13T09:04:55.822Z,5.17
2017-06-13T09:07:23.588Z,5.33
2017-06-13T09:09:51.179Z,6.27
2017-06-13T09:12:18.705Z,6.10
2017-06-13T09:14:46.232Z,5.13
2017-06-13T09:17:13.830Z,6.63
2017-06-13T09:19:41.361Z,5.70
2017-06-13T09:22:08.895Z,5.93
2017-06-13T09:24:36.716Z,6.00
2017-06-13T09:27:04.579Z,6.17
2017-06-13T09:29:32.190Z,4.80
2017-06-13T09:31:59.770Z,4.70
2017-06-13T09:34:27.303Z,4.93
2017-06-13T09:36:55.072Z,4.87
2017-06-13T09:39:22.678Z,4.87
2017-06-13T09:41:50.228Z,4.53
2017-06-13T09:44:17.769Z,5.40
2017-06-13T09:46:45.347Z,4.67
2017-06-13T09:49:13.219Z,5.40
2017-06-13T09:51:40.765Z,5.13
2017-06-13T09:54:08.347Z,4.77
2017-06-13T09:56:36.114Z,5.07
2017-06-13T09:59:03.659Z,5.33
2017-06-13T10:01:31.497Z,5.57
2017-06-13T10:03:59.263Z,4.97
2017-06-13T10:06:26.797Z,4.53
2017-06-13T10:08:54.898Z,4.93
2017-06-13T10:11:22.752Z,4.70
2017-06-13T10:13:50.664Z,5.37
2017-06-13T10:16:18.224Z,4.80
2017-06-13T10:18:45.755Z,5.00
2017-06-13T10:21:13.648Z,5.30
2017-06-13T10:23:41.219Z,4.90
2017-06-13T10:26:08.759Z,6.40
2017-06-13T10:28:36.531Z,9.03
2017-06-13T10:31:04.330Z,5.83
2017-06-13T10:33:31.895Z,5.90
2017-06-13T10:35:59.445Z,5.33
2017-06-13T10:38:27.790Z,6.53
2017-06-13T10:40:55.326Z,6.03
2017-06-13T10:43:22.893Z,5.67
2017-06-13T10:45:50.473Z,5.97
2017-06-13T10:48:18.337Z,5.30
2017-06-13T10:50:46.205Z,6.43
2017-06-13T10:53:13.782Z,7.47
2017-06-13T10:55:41.696Z,7.00
2017-06-13T10:58:09.237Z,6.50
2017-06-13T11:00:36.848Z,7.43
2017-06-13T11:03:04.378Z,7.20
2017-06-13T11:05:32.285Z,5.23
2017-06-13T11:07:59.871Z,6.60
2017-06-13T11:10:27.710Z,7.50
2017-06-13T11:12:55.246Z,6.03
2017-06-13T11:15:22.974Z,5.87
2017-06-13T11:17:50.800Z,6.50
2017-06-13T11:20:18.345Z,6.13
2017-06-13T11:22:45.925Z,6.40
2017-06-13T11:25:13.493Z,6.50
2017-06-13T11:27:41.041Z,6.13
2017-06-13T11:30:08.747Z,5.70
2017-06-13T11:32:36.278Z,6.10
2017-06-13T11:35:04.051Z,6.30
2017-06-13T11:37:31.645Z,5.70
2017-06-13T11:39:59.425Z,6.50
2017-06-13T11:42:26.960Z,5.80
2017-06-13T11:44:54.554Z,5.37
2017-06-13T11:47:22.738Z,4.77
2017-06-13T11:49:50.274Z,5.27
2017-06-13T11:52:17.866Z,5.50
2017-06-13T11:54:45.418Z,4.93
2017-06-13T11:57:12.966Z,7.70
2017-06-13T11:59:40.546Z,5.73
2017-06-13T12:02:08.150Z,5.90
2017-06-13T12:04:35.755Z,6.10
2017-06-13T12:07:03.290Z,5.90
2017-06-13T12:09:32.318Z,5.60
2017-06-13T12:12:02.658Z,5.73
2017-06-13T12:14:30.189Z,5.53
2017-06-13T12:16:57.767Z,4.67
2017-06-13T12:19:25.537Z,4.27
2017-06-13T12:21:53.070Z,4.60
2017-06-13T12:24:20.654Z,5.03
2017-06-13T12:26:48.226Z,3.80
2017-06-13T12:29:15.790Z,3.93
2017-06-13T12:31:43.372Z,3.60
2017-06-13T12:34:11.154Z,3.20
2017-06-13T12:36:38.917Z,2.70
2017-06-13T12:39:07.219Z,3.70
2017-06-13T12:41:34.781Z,4.00
2017-06-13T12:44:02.660Z,3.30
2017-06-13T12:46:30.243Z,3.60
2017-06-13T12:48:57.779Z,3.70
2017-06-13T12:51:25.314Z,4.30
2017-06-13T12:53:52.905Z,3.73
2017-06-13T12:56:20.439Z,3.80
2017-06-13T12:58:48.201Z,3.97
2017-06-13T13:01:15.777Z,3.10
2017-06-13T13:03:43.345Z,3.10
2017-06-13T13:06:10.888Z,3.53
2017-06-13T13:08:38.456Z,3.70
2017-06-13T13:11:05.986Z,3.93
2017-06-13T13:13:33.749Z,4.30
2017-06-13T13:16:01.544Z,4.70
2017-06-13T13:18:29.084Z,4.67
2017-06-13T13:20:56.646Z,4.90
2017-06-13T13:23:24.230Z,3.60
2017-06-13T13:25:51.770Z,3.77
2017-06-13T13:28:54.181Z,5.43
2017-06-13T13:31:21.861Z,4.67
2017-06-13T13:33:50.321Z,4.20
2017-06-13T13:36:17.856Z,4.13
2017-06-13T13:38:45.429Z,5.13
2017-06-13T13:41:13.259Z,4.57
2017-06-13T13:43:40.990Z,5.43
2017-06-13T13:46:08.578Z,5.67
2017-06-13T13:48:36.110Z,5.37
2017-06-13T13:51:03.656Z,5.63
2017-06-13T13:53:31.222Z,5.17
2017-06-13T13:55:58.993Z,6.53
2017-06-13T13:58:26.547Z,7.27
2017-06-13T14:00:54.203Z,6.20
2017-06-13T14:03:21.752Z,6.10
2017-06-13T14:05:49.295Z,6.03
2017-06-13T14:08:18.063Z,4.80
2017-06-13T14:10:45.676Z,6.27
2017-06-13T14:13:13.209Z,6.03
2017-06-13T14:15:41.193Z,5.77
2017-06-13T14:18:08.743Z,5.30
2017-06-13T14:20:36.301Z,5.43
2017-06-13T14:23:03.915Z,5.60
2017-06-13T14:25:31.765Z,6.13
2017-06-13T14:27:59.322Z,5.10
2017-06-13T14:30:27.081Z,5.90
2017-06-13T14:32:54.916Z,4.80
2017-06-13T14:35:22.449Z,5.70
2017-06-13T14:37:50.021Z,6.10
2017-06-13T14:40:17.557Z,5.70
2017-06-13T14:42:45.110Z,5.30
2017-06-13T14:45:12.698Z,5.63
2017-06-13T14:47:40.305Z,5.90
2017-06-13T14:50:07.834Z,6.00
2017-06-13T14:52:35.773Z,5.87
2017-06-13T14:55:03.302Z,6.17
2017-06-13T14:57:31.135Z,6.60
2017-06-13T14:59:58.701Z,7.43
2017-06-13T15:02:26.939Z,7.40
2017-06-13T15:04:54.465Z,7.37
2017-06-13T15:07:22.030Z,7.57
2017-06-13T15:09:49.877Z,5.80
2017-06-13T15:12:18.085Z,6.70
2017-06-13T15:14:45.634Z,5.87
2017-06-13T15:17:13.506Z,5.73
2017-06-13T15:19:41.451Z,5.20
2017-06-13T15:22:09.673Z,5.90
2017-06-13T15:24:37.326Z,5.13
2017-06-13T15:27:05.184Z,5.90
2017-06-13T15:29:32.762Z,6.10
2017-06-13T15:32:00.339Z,6.20
2017-06-13T15:34:27.903Z,6.50
2017-06-13T15:36:55.462Z,5.90
2017-06-13T15:39:23.037Z,6.50
2017-06-13T15:41:50.575Z,6.10
2017-06-13T15:44:18.102Z,5.10
2017-06-13T15:46:45.666Z,5.33
2017-06-13T15:49:13.210Z,5.80
2017-06-13T15:51:40.746Z,6.30
2017-06-13T15:54:08.304Z,5.13
2017-06-13T15:56:35.852Z,5.97
2017-06-13T15:59:03.388Z,5.70
2017-06-13T16:01:31.027Z,7.80
2017-06-13T16:03:58.586Z,6.33
2017-06-13T16:06:26.132Z,6.40
2017-06-13T16:08:53.701Z,5.83
2017-06-13T16:11:21.237Z,6.00
2017-06-13T16:13:48.783Z,6.80
2017-06-13T16:16:16.566Z,6.40
2017-06-13T16:18:44.381Z,6.87
2017-06-13T16:21:11.922Z,6.60
2017-06-13T16:23:39.510Z,7.60
2017-06-13T16:26:07.327Z,7.17
2017-06-13T16:28:35.238Z,7.07
2017-06-13T16:31:02.805Z,7.40
2017-06-13T16:33:30.400Z,7.43
2017-06-13T16:35:57.973Z,7.50
2017-06-13T16:38:25.562Z,7.03
2017-06-13T16:40:53.095Z,7.33
2017-06-13T16:43:20.652Z,7.50
2017-06-13T16:45:48.232Z,6.80
2017-06-13T16:48:15.781Z,6.80
2017-06-13T16:50:43.320Z,9.40
2017-06-13T16:53:10.895Z,7.20
2017-06-13T16:55:38.429Z,7.60
2017-06-13T16:58:06.188Z,7.83
2017-06-13T17:00:33.913Z,7.53
2017-06-13T17:03:01.474Z,7.50
2017-06-13T17:05:29.309Z,7.30
2017-06-13T17:07:56.869Z,7.50
2017-06-13T17:10:24.397Z,8.00
2017-06-13T17:12:51.930Z,6.77
2017-06-13T17:15:19.485Z,7.47
2017-06-13T17:17:47.112Z,8.07
2017-06-13T17:20:15.177Z,7.80
2017-06-13T17:22:42.765Z,8.90
2017-06-13T17:25:10.926Z,8.40
2017-06-13T17:27:38.464Z,8.47
2017-06-13T17:30:08.129Z,7.50
2017-06-13T17:32:35.670Z,8.27
2017-06-13T17:35:03.236Z,8.30
2017-06-13T17:37:30.842Z,9.77
2017-06-13T17:39:58.407Z,7.87
2017-06-13T17:42:25.937Z,8.43
2017-06-13T17:44:53.520Z,8.60
2017-06-13T17:47:21.062Z,7.83
2017-06-13T17:49:48.615Z,8.30
2017-06-13T17:52:16.251Z,8.00
2017-06-13T17:54:43.818Z,8.20
2017-06-13T17:57:11.394Z,7.93
2017-06-13T17:59:39.131Z,7.13
2017-06-13T18:02:06.810Z,7.50
2017-06-13T18:04:34.530Z,8.00
2017-06-13T18:07:02.195Z,7.93
2017-06-13T18:09:30.188Z,7.70
2017-06-13T18:11:57.953Z,8.00
2017-06-13T18:14:25.730Z,8.33
2017-06-13T18:16:53.509Z,8.20
2017-06-13T18:19:22.647Z,8.40
2017-06-13T18:21:50.298Z,8.13
2017-06-13T18:24:18.338Z,8.30
2017-06-13T18:26:46.370Z,8.30
2017-06-13T18:29:14.152Z,9.27
2017-06-13T18:31:41.979Z,8.33
2017-06-13T18:34:10.018Z,8.70
2017-06-13T18:36:37.852Z,8.60
2017-06-13T18:39:15.781Z,9.20
2017-06-13T18:41:43.685Z,8.50
2017-06-13T18:44:11.715Z,9.80
2017-06-13T18:46:39.460Z,7.60
2017-06-13T18:49:07.258Z,8.37
2017-06-13T18:51:35.076Z,9.80
2017-06-13T18:54:02.891Z,8.67
2017-06-13T18:56:30.775Z,9.43
2017-06-13T18:58:59.840Z,8.97
2017-06-13T19:01:27.779Z,8.77
2017-06-13T19:03:56.611Z,9.77
2017-06-13T19:06:24.459Z,10.57
2017-06-13T19:08:52.357Z,9.03
2017-06-13T19:11:20.101Z,9.50
2017-06-13T19:13:48.073Z,9.37
2017-06-13T19:16:15.844Z,9.70
2017-06-13T19:18:43.952Z,9.67
2017-06-13T19:21:12.037Z,9.70
2017-06-13T19:23:39.813Z,8.90
2017-06-13T19:26:07.613Z,8.80
2017-06-13T19:28:35.421Z,9.77
2017-06-13T19:31:03.424Z,9.47
2017-06-13T19:33:31.194Z,9.50
2017-06-13T19:35:59.424Z,9.73
2017-06-13T19:38:27.927Z,9.87
2017-06-13T19:40:56.009Z,9.10
2017-06-13T19:43:23.822Z,9.43
2017-06-13T19:45:51.682Z,8.37
2017-06-13T19:48:19.725Z,12.70
2017-06-13T19:50:47.833Z,13.07
2017-06-13T19:53:15.631Z,12.13
2017-06-13T19:55:43.432Z,13.63
2017-06-13T19:58:11.202Z,12.90
2017-06-13T20:00:39.519Z,14.03
2017-06-13T20:03:07.346Z,15.77
2017-06-13T20:05:35.233Z,17.40
2017-06-13T20:08:03.061Z,14.70
2017-06-13T20:10:30.773Z,13.27
2017-06-13T20:12:58.384Z,16.17
2017-06-13T20:15:26.127Z,15.83
2017-06-13T20:17:53.814Z,14.37
2017-06-13T20:20:21.586Z,12.80
2017-06-13T20:22:54.754Z,12.50
2017-06-13T20:25:22.446Z,12.10
2017-06-13T20:27:50.255Z,12.27
2017-06-13T20:30:25.126Z,11.53
2017-06-13T20:32:52.838Z,12.20
2017-06-13T20:35:26.042Z,10.73
2017-06-13T20:37:53.618Z,11.70
2017-06-13T20:40:21.269Z,11.40
2017-06-13T20:42:48.895Z,10.90
2017-06-13T20:45:16.482Z,10.00
2017-06-13T20:47:44.032Z,10.27
2017-06-13T20:50:11.607Z,11.03
2017-06-13T20:52:39.155Z,10.57
2017-06-13T20:55:06.690Z,11.33
2017-06-13T20:57:34.260Z,11.23
2017-06-13T21:00:01.802Z,10.50
2017-06-13T21:02:29.380Z,10.27
2017-06-13T21:04:56.959Z,9.73
2017-06-13T21:07:24.514Z,9.57
2017-06-13T21:09:52.084Z,10.67
2017-06-13T21:12:19.626Z,9.80
2017-06-13T21:14:47.851Z,9.83
2017-06-13T21:17:15.427Z,9.33
2017-06-13T21:19:43.240Z,9.60
2017-06-13T21:22:10.782Z,10.70
2017-06-13T21:24:38.359Z,10.70
2017-06-13T21:27:05.907Z,10.60
2017-06-13T21:29:33.455Z,9.43
2017-06-13T21:32:01.051Z,10.30
2017-06-13T21:34:28.590Z,9.23
2017-06-13T21:36:56.140Z,10.80
2017-06-13T21:39:23.733Z,10.93
2017-06-13T21:41:51.274Z,10.80
2017-06-13T21:44:18.814Z,9.53
2017-06-13T21:46:46.405Z,10.60
2017-06-13T21:49:13.946Z,10.53
2017-06-13T21:51:41.810Z,10.07
2017-06-13T21:54:09.395Z,10.50
2017-06-13T21:56:37.670Z,10.60
2017-06-13T21:59:05.266Z,10.20
2017-06-13T22:01:33.693Z,10.40
2017-06-13T22:04:01.329Z,9.67
2017-06-13T22:06:28.879Z,10.50
2017-06-13T22:08:56.466Z,10.27
2017-06-13T22:11:24.785Z,11.13
2017-06-13T22:13:52.549Z,10.50
2017-06-13T22:16:20.194Z,10.40
2017-06-13T22:18:48.370Z,11.60
2017-06-13T22:21:16.190Z,11.40
2017-06-13T22:23:43.808Z,11.33
2017-06-13T22:26:11.500Z,10.53
2017-06-13T22:28:39.037Z,11.70
2017-06-13T22:31:06.667Z,10.70
2017-06-13T22:33:34.270Z,11.80
2017-06-13T22:36:02.309Z,10.87
2017-06-13T22:38:29.942Z,11.47
2017-06-13T22:40:57.497Z,11.30
2017-06-13T22:43:25.035Z,11.47
2017-06-13T22:45:52.633Z,11.70
2017-06-13T22:48:20.446Z,10.97
2017-06-13T22:50:48.287Z,11.07
2017-06-13T22:53:15.897Z,11.40
2017-06-13T22:55:43.814Z,11.63
2017-06-13T22:58:12.457Z,12.00
2017-06-13T23:00:40.485Z,10.43
2017-06-13T23:03:08.382Z,11.20
2017-06-13T23:05:35.989Z,11.17
2017-06-13T23:08:03.805Z,11.47
2017-06-13T23:10:31.337Z,11.47
2017-06-13T23:12:59.019Z,10.43
2017-06-13T23:15:27.126Z,11.83
2017-06-13T23:17:54.789Z,11.67
2017-06-13T23:20:22.937Z,12.57
2017-06-13T23:22:50.706Z,11.47
2017-06-13T23:25:18.754Z,11.53
2017-06-13T23:27:46.778Z,10.83
2017-06-13T23:30:14.518Z,11.63
2017-06-13T23:32:42.274Z,11.10
2017-06-13T23:35:10.131Z,11.90
2017-06-13T23:37:37.777Z,11.90
2017-06-13T23:40:05.630Z,11.97
2017-06-13T23:42:33.763Z,11.60
2017-06-13T23:45:01.524Z,12.17
2017-06-13T23:47:29.388Z,12.23
2017-06-13T23:49:57.053Z,11.60
2017-06-13T23:52:24.847Z,12.20
2017-06-13T23:54:52.389Z,11.17
2017-06-13T23:57:19.925Z,12.30
2017-06-13T23:59:47.497Z,12.33
